Time;durP1;ratioP1;P1;durP2;ratioP2;P2;SDS_P1;SDS_P2;PMS_P1;PMS_P2;Temp;Humidity;BMP_temperature;BMP_pressure;BME280_temperature;BME280_humidity;BME280_pressure;Samples;Min_cycle;Max_cycle;Signal;HPM_P1;HPM_P2
2023/12/12 00:01:24;;;;;;;13.00;4.38;;;9.60;93.00;;;;;;5135575;27;20025;-31
2023/12/12 00:03:50;;;;;;;7.78;4.18;;;9.60;93.00;;;;;;5135998;27;20072;-36
2023/12/12 00:06:16;;;;;;;9.20;4.90;;;9.60;93.00;;;;;;5135700;27;20031;-29
2023/12/12 00:08:41;;;;;;;9.20;4.30;;;9.60;93.00;;;;;;5135688;27;20072;-29
2023/12/12 00:11:07;;;;;;;6.68;3.70;;;9.60;93.00;;;;;;5135822;27;20019;-28
2023/12/12 00:13:33;;;;;;;10.25;4.70;;;9.50;93.00;;;;;;5135479;27;20539;-29
2023/12/12 00:15:58;;;;;;;7.20;4.13;;;9.50;92.90;;;;;;5135174;27;20046;-28
2023/12/12 00:18:24;;;;;;;7.22;4.43;;;9.50;93.00;;;;;;5135268;27;20029;-30
2023/12/12 00:20:50;;;;;;;8.68;4.00;;;9.50;93.00;;;;;;5135314;27;20031;-29
2023/12/12 00:23:16;;;;;;;8.32;4.10;;;9.50;93.00;;;;;;5135494;27;20026;-29
2023/12/12 00:25:41;;;;;;;11.00;4.20;;;9.50;93.00;;;;;;5135077;27;20031;-28
2023/12/12 00:28:07;;;;;;;8.13;4.13;;;9.50;93.00;;;;;;5134876;27;20027;-29
2023/12/12 00:30:33;;;;;;;7.20;3.75;;;9.40;93.00;;;;;;5134950;27;20072;-28
2023/12/12 00:32:59;;;;;;;9.45;4.45;;;9.50;93.00;;;;;;5135306;27;20084;-28
2023/12/12 00:35:24;;;;;;;8.13;4.05;;;9.40;93.00;;;;;;5135214;27;20028;-28
2023/12/12 00:37:50;;;;;;;12.50;4.57;;;9.50;93.00;;;;;;5134962;27;20482;-28
2023/12/12 00:40:16;;;;;;;11.65;4.40;;;9.50;92.90;;;;;;5134991;27;20114;-28
2023/12/12 00:42:41;;;;;;;8.32;4.32;;;9.50;92.90;;;;;;5134900;27;20076;-29
2023/12/12 00:45:07;;;;;;;9.38;4.10;;;9.40;92.90;;;;;;5134707;27;20022;-30
2023/12/12 00:47:33;;;;;;;10.50;4.43;;;9.50;92.90;;;;;;5134501;27;20027;-30
2023/12/12 00:49:59;;;;;;;8.35;4.47;;;9.40;92.90;;;;;;5134927;27;20011;-29
2023/12/12 00:52:25;;;;;;;9.50;4.30;;;9.50;92.90;;;;;;5134809;27;20024;-31
2023/12/12 00:54:51;;;;;;;8.70;4.20;;;9.50;92.90;;;;;;5134521;27;20543;-28
2023/12/12 00:57:16;;;;;;;8.23;4.57;;;9.40;92.80;;;;;;5134200;27;20027;-29
2023/12/12 00:59:42;;;;;;;10.10;4.13;;;9.40;92.80;;;;;;5134032;27;20039;-28
2023/12/12 01:02:07;;;;;;;7.47;4.32;;;9.40;92.80;;;;;;5134430;27;20017;-29
2023/12/12 01:04:34;;;;;;;8.68;4.28;;;9.40;92.80;;;;;;5134538;27;20027;-29
2023/12/12 01:07:00;;;;;;;10.18;4.20;;;9.40;92.80;;;;;;5134685;27;20375;-30
2023/12/12 01:09:25;;;;;;;9.23;4.03;;;9.40;92.80;;;;;;5134344;27;20011;-28
2023/12/12 01:11:51;;;;;;;7.47;3.80;;;9.30;92.80;;;;;;5134439;27;20030;-29
2023/12/12 01:14:16;;;;;;;8.70;3.85;;;9.30;92.80;;;;;;5134060;27;20074;-28
2023/12/12 01:16:42;;;;;;;7.60;4.40;;;9.20;92.80;;;;;;5134707;27;20027;-27
2023/12/12 01:19:07;;;;;;;6.47;3.67;;;9.20;92.80;;;;;;5133931;27;20142;-28
2023/12/12 01:21:33;;;;;;;5.68;3.40;;;9.20;92.90;;;;;;5134166;27;20066;-29
2023/12/12 01:23:58;;;;;;;7.05;3.85;;;9.20;92.90;;;;;;5133770;27;20023;-29
2023/12/12 01:26:24;;;;;;;11.25;4.20;;;9.10;92.90;;;;;;5134076;27;20015;-31
2023/12/12 01:28:50;;;;;;;9.23;3.90;;;9.10;92.90;;;;;;5134091;27;20023;-29
2023/12/12 01:31:17;;;;;;;7.90;3.75;;;9.10;92.80;;;;;;5133907;27;20035;-29
2023/12/12 01:33:43;;;;;;;5.88;3.72;;;9.00;92.90;;;;;;5134065;27;20493;-31
2023/12/12 01:36:09;;;;;;;7.25;4.03;;;9.00;92.90;;;;;;5133730;27;20031;-30
2023/12/12 01:38:35;;;;;;;6.93;3.83;;;8.90;92.80;;;;;;5134022;27;20114;-29
2023/12/12 01:41:01;;;;;;;4.88;3.58;;;8.90;92.90;;;;;;5133683;27;20518;-29
2023/12/12 01:43:28;;;;;;;8.50;3.58;;;8.80;92.90;;;;;;5133752;27;20023;-29
2023/12/12 01:45:58;;;;;;;8.05;3.50;;;8.80;93.00;;;;;;5133634;27;20015;-29
2023/12/12 01:48:24;;;;;;;6.88;4.22;;;8.70;93.00;;;;;;5133437;27;20491;-29
2023/12/12 01:50:51;;;;;;;6.13;4.00;;;8.70;93.00;;;;;;5133860;27;20475;-32
2023/12/12 01:53:33;;;;;;;8.68;4.18;;;8.60;93.00;;;;;;5133463;27;20033;-28
2023/12/12 01:56:01;;;;;;;12.60;5.10;;;8.60;93.10;;;;;;5133298;27;20030;-31
2023/12/12 01:58:27;;;;;;;9.52;4.03;;;8.60;93.10;;;;;;5133296;27;20079;-33
2023/12/12 02:00:53;;;;;;;7.40;3.97;;;8.50;93.10;;;;;;5133282;27;20023;-29
2023/12/12 02:03:20;;;;;;;8.63;4.40;;;8.50;93.10;;;;;;5133435;27;20015;-29
2023/12/12 02:05:47;;;;;;;6.78;4.25;;;8.40;93.10;;;;;;5131730;27;20023;-29
2023/12/12 02:08:13;;;;;;;7.65;4.30;;;8.40;93.20;;;;;;5132820;27;20015;-28
2023/12/12 02:10:40;;;;;;;11.55;4.63;;;8.40;93.10;;;;;;5133023;27;20047;-30
2023/12/12 02:13:06;;;;;;;8.45;4.43;;;8.30;93.10;;;;;;5133518;27;20447;-28
2023/12/12 02:15:31;;;;;;;8.95;4.10;;;8.30;93.20;;;;;;5133176;27;20019;-28
2023/12/12 02:17:57;;;;;;;9.95;4.38;;;8.30;93.20;;;;;;5133380;27;20031;-29
2023/12/12 02:20:23;;;;;;;7.88;4.75;;;8.20;93.20;;;;;;5133051;27;20118;-31
2023/12/12 02:22:48;;;;;;;8.52;4.60;;;8.20;93.20;;;;;;5132977;27;20029;-28
2023/12/12 02:25:18;;;;;;;8.35;4.50;;;8.20;93.20;;;;;;5133161;27;20523;-28
2023/12/12 02:27:44;;;;;;;8.93;4.78;;;8.20;93.20;;;;;;5132922;27;20019;-28
2023/12/12 02:30:11;;;;;;;7.35;4.47;;;8.10;93.20;;;;;;5132843;27;20024;-28
2023/12/12 02:32:37;;;;;;;13.25;4.90;;;8.10;93.50;;;;;;5132772;27;20546;-34
2023/12/12 02:35:02;;;;;;;10.82;4.63;;;8.00;93.20;;;;;;5132804;27;20051;-28
2023/12/12 02:37:28;;;;;;;9.70;5.38;;;8.10;93.20;;;;;;5132941;27;20031;-29
2023/12/12 02:39:53;;;;;;;9.63;5.07;;;8.00;93.20;;;;;;5133168;27;20015;-28
2023/12/12 02:42:19;;;;;;;8.88;4.68;;;8.00;93.20;;;;;;5133113;27;20030;-28
2023/12/12 02:44:45;;;;;;;9.43;5.20;;;8.00;93.30;;;;;;5132911;27;20475;-29
2023/12/12 02:47:10;;;;;;;14.05;5.28;;;7.90;93.30;;;;;;5132932;27;20027;-29
2023/12/12 02:49:36;;;;;;;10.90;5.53;;;7.90;93.30;;;;;;5132571;27;20447;-28
2023/12/12 02:52:01;;;;;;;10.93;5.07;;;7.90;93.30;;;;;;5132803;27;20494;-28
2023/12/12 02:54:27;;;;;;;8.02;5.18;;;7.80;93.20;;;;;;5132457;27;20019;-30
2023/12/12 02:56:53;;;;;;;9.70;5.90;;;7.80;93.30;;;;;;5132940;27;20463;-29
2023/12/12 02:59:19;;;;;;;9.15;5.97;;;7.80;93.30;;;;;;5132908;27;20486;-29
2023/12/12 03:01:47;;;;;;;10.30;6.50;;;7.70;93.30;;;;;;5132536;27;20019;-29
2023/12/12 03:04:12;;;;;;;10.00;6.30;;;7.70;93.30;;;;;;5132385;27;20490;-28
2023/12/12 03:06:38;;;;;;;11.48;6.60;;;7.70;93.30;;;;;;5132720;27;20012;-30
2023/12/12 03:09:03;;;;;;;10.30;6.25;;;7.70;93.30;;;;;;5131288;28;20026;-40
2023/12/12 03:11:29;;;;;;;11.23;6.45;;;7.70;93.30;;;;;;5132524;27;20028;-28
2023/12/12 03:13:55;;;;;;;13.50;7.03;;;7.70;93.30;;;;;;5132603;27;20016;-28
2023/12/12 03:16:20;;;;;;;13.68;6.60;;;7.70;93.40;;;;;;5132320;27;20383;-27
2023/12/12 03:18:46;;;;;;;9.77;6.93;;;7.70;93.30;;;;;;5133083;27;20496;-28
2023/12/12 03:21:11;;;;;;;14.55;6.35;;;7.70;93.30;;;;;;5136814;27;20470;-33
2023/12/12 03:23:37;;;;;;;11.50;6.60;;;7.70;93.30;;;;;;5136700;27;20471;-29
2023/12/12 03:26:08;;;;;;;13.77;7.25;;;7.60;93.30;;;;;;5136676;27;20471;-28
2023/12/12 03:28:34;;;;;;;11.63;6.40;;;7.60;93.30;;;;;;5136472;27;20039;-28
2023/12/12 03:31:01;;;;;;;10.00;6.80;;;7.60;93.30;;;;;;5136433;27;20036;-30
2023/12/12 03:33:27;;;;;;;10.23;6.93;;;7.60;93.30;;;;;;5136186;27;20031;-29
2023/12/12 03:35:52;;;;;;;11.60;6.78;;;7.60;93.30;;;;;;5136166;27;20027;-29
2023/12/12 03:38:18;;;;;;;15.27;7.00;;;7.60;93.30;;;;;;5136115;27;20031;-31
2023/12/12 03:40:43;;;;;;;11.60;6.80;;;7.60;93.30;;;;;;5136467;27;20051;-32
2023/12/12 03:43:09;;;;;;;12.20;7.18;;;7.50;93.30;;;;;;5136168;27;20374;-31
2023/12/12 03:45:34;;;;;;;10.48;6.43;;;7.50;93.60;;;;;;5135995;27;20471;-28
2023/12/12 03:48:00;;;;;;;14.32;7.05;;;7.50;93.30;;;;;;5135792;27;20031;-29
2023/12/12 03:50:25;;;;;;;8.60;6.25;;;7.50;93.30;;;;;;5136042;27;20441;-29
2023/12/12 03:52:51;;;;;;;12.13;6.85;;;7.50;93.30;;;;;;5135829;27;20487;-29
2023/12/12 03:55:16;;;;;;;11.90;6.45;;;7.50;93.30;;;;;;5134434;27;20011;-28
2023/12/12 03:57:42;;;;;;;14.82;7.53;;;7.40;93.30;;;;;;5136094;27;20083;-28
2023/12/12 04:00:08;;;;;;;12.45;6.47;;;7.40;93.30;;;;;;5135779;27;20028;-31
2023/12/12 04:02:34;;;;;;;11.20;6.70;;;7.40;93.30;;;;;;5135885;27;20088;-30
2023/12/12 04:04:59;;;;;;;11.85;6.97;;;7.40;93.30;;;;;;5135993;27;20053;-29
2023/12/12 04:07:25;;;;;;;15.40;7.20;;;7.40;93.30;;;;;;5135735;27;20028;-33
2023/12/12 04:09:50;;;;;;;9.23;5.88;;;7.40;93.30;;;;;;5135820;27;20019;-31
2023/12/12 04:12:16;;;;;;;15.18;6.95;;;7.40;93.30;;;;;;5135580;27;20034;-32
2023/12/12 04:14:41;;;;;;;13.13;6.88;;;7.30;93.30;;;;;;5135332;27;20023;-31
2023/12/12 04:17:07;;;;;;;11.88;6.07;;;7.30;93.30;;;;;;5134273;27;20023;-30
2023/12/12 04:19:32;;;;;;;11.68;6.85;;;7.30;93.30;;;;;;5135570;27;20012;-30
2023/12/12 04:21:59;;;;;;;12.18;6.22;;;7.30;93.30;;;;;;5135541;27;20047;-30
2023/12/12 04:24:25;;;;;;;10.82;6.72;;;7.20;93.20;;;;;;5135210;27;20015;-37
2023/12/12 04:26:50;;;;;;;12.38;7.00;;;7.20;93.30;;;;;;5135170;27;20076;-31
2023/12/12 04:29:16;;;;;;;14.40;6.35;;;7.10;93.50;;;;;;5135195;27;20054;-29
2023/12/12 04:31:41;;;;;;;11.23;6.45;;;7.10;93.30;;;;;;5134493;27;20035;-28
2023/12/12 04:34:07;;;;;;;12.20;7.80;;;7.10;93.30;;;;;;5134826;27;20019;-32
2023/12/12 04:36:33;;;;;;;10.15;7.20;;;7.10;93.30;;;;;;5135119;27;20015;-28
2023/12/12 04:38:58;;;;;;;11.85;6.60;;;7.10;93.30;;;;;;5134941;27;20064;-29
2023/12/12 04:41:24;;;;;;;9.57;6.40;;;7.10;93.30;;;;;;5135009;27;20019;-28
2023/12/12 04:43:49;;;;;;;9.95;6.05;;;7.10;93.30;;;;;;5134737;27;20027;-29
2023/12/12 04:46:19;;;;;;;11.80;6.43;;;7.10;93.20;;;;;;5135328;27;20016;-29
2023/12/12 04:48:45;;;;;;;10.98;6.43;;;7.20;93.20;;;;;;5134742;27;20034;-30
2023/12/12 04:51:11;;;;;;;6.65;5.78;;;7.20;93.10;;;;;;5134892;27;20016;-31
2023/12/12 04:53:36;;;;;;;10.98;6.70;;;7.20;93.10;;;;;;5134624;27;20034;-28
2023/12/12 04:56:02;;;;;;;11.63;6.32;;;7.20;93.10;;;;;;5134997;27;20022;-32
2023/12/12 04:58:28;;;;;;;11.88;6.00;;;7.30;93.10;;;;;;5133780;27;20100;-34
2023/12/12 05:00:53;;;;;;;8.15;6.10;;;7.30;93.10;;;;;;5134733;27;20114;-37
2023/12/12 05:03:19;;;;;;;11.05;5.88;;;7.30;93.10;;;;;;5134414;27;20076;-31
2023/12/12 05:05:45;;;;;;;12.27;6.50;;;7.40;93.00;;;;;;5134451;27;20019;-31
2023/12/12 05:08:10;;;;;;;8.05;5.55;;;7.40;93.00;;;;;;5134420;27;20107;-32
2023/12/12 05:10:36;;;;;;;8.88;6.05;;;7.30;92.90;;;;;;5134418;27;20023;-31
2023/12/12 05:13:02;;;;;;;12.20;5.93;;;7.40;92.90;;;;;;5133070;27;20023;-35
2023/12/12 05:15:28;;;;;;;10.80;6.38;;;7.30;92.90;;;;;;5134137;27;20092;-33
2023/12/12 05:17:54;;;;;;;10.82;6.55;;;7.30;92.90;;;;;;5133917;27;20071;-41
2023/12/12 05:20:19;;;;;;;10.73;6.40;;;7.30;92.90;;;;;;5133865;27;20059;-33
2023/12/12 05:22:45;;;;;;;10.18;6.10;;;7.30;92.90;;;;;;5134260;27;20027;-35
2023/12/12 05:25:11;;;;;;;10.27;6.75;;;7.30;92.90;;;;;;5133783;27;20098;-34
2023/12/12 05:27:36;;;;;;;11.00;6.47;;;7.30;93.10;;;;;;5134091;27;20038;-32
2023/12/12 05:30:02;;;;;;;9.68;6.10;;;7.20;92.80;;;;;;5134344;27;20015;-29
2023/12/12 05:32:28;;;;;;;9.25;6.15;;;7.10;92.80;;;;;;5132425;27;20054;-29
2023/12/12 05:34:53;;;;;;;14.18;6.47;;;7.10;92.90;;;;;;5132505;27;20126;-30
2023/12/12 05:37:19;;;;;;;14.77;6.60;;;7.00;92.80;;;;;;5133707;27;20038;-28
2023/12/12 05:39:46;;;;;;;15.07;6.55;;;7.00;92.90;;;;;;5133823;27;20102;-30
2023/12/12 05:42:11;;;;;;;12.32;6.75;;;6.90;92.90;;;;;;5133640;27;20023;-28
2023/12/12 05:44:37;;;;;;;11.40;6.72;;;6.90;92.90;;;;;;5133576;27;20026;-30
2023/12/12 05:47:03;;;;;;;11.35;6.53;;;6.90;93.00;;;;;;5133632;27;20102;-30
2023/12/12 05:49:28;;;;;;;9.20;6.13;;;6.90;93.00;;;;;;5133466;27;20023;-32
2023/12/12 05:51:54;;;;;;;11.88;6.28;;;6.80;93.00;;;;;;5133452;27;20068;-29
2023/12/12 05:54:19;;;;;;;11.02;6.32;;;6.80;93.00;;;;;;5133393;27;20099;-29
2023/12/12 05:56:45;;;;;;;11.93;5.80;;;6.80;93.00;;;;;;5133372;27;20019;-29
2023/12/12 05:59:14;;;;;;;11.85;6.68;;;6.80;93.00;;;;;;5133673;27;20390;-29
2023/12/12 06:01:42;;;;;;;12.27;7.00;;;6.80;93.00;;;;;;5133617;27;20071;-29
2023/12/12 06:04:11;;;;;;;10.93;6.22;;;6.80;93.00;;;;;;5133407;27;20030;-30
2023/12/12 06:06:41;;;;;;;10.55;6.57;;;6.80;93.00;;;;;;5133294;27;20113;-28
2023/12/12 06:09:07;;;;;;;13.57;6.57;;;6.80;93.00;;;;;;5131905;27;20076;-29
2023/12/12 06:11:32;;;;;;;12.93;6.90;;;6.80;93.00;;;;;;5133139;27;20027;-29
2023/12/12 06:13:58;;;;;;;15.15;6.28;;;6.70;93.00;;;;;;5133063;27;20023;-29
2023/12/12 06:16:23;;;;;;;8.10;5.53;;;6.80;93.00;;;;;;5133347;27;20026;-31
2023/12/12 06:18:51;;;;;;;11.07;6.50;;;6.80;93.00;;;;;;5133279;27;20022;-33
2023/12/12 06:21:17;;;;;;;13.23;6.97;;;6.90;93.00;;;;;;5133310;27;20096;-30
2023/12/12 06:23:43;;;;;;;10.45;6.93;;;6.90;93.00;;;;;;5132947;27;20477;-29
2023/12/12 06:26:08;;;;;;;10.73;6.30;;;7.00;93.00;;;;;;5133014;27;20041;-29
2023/12/12 06:28:34;;;;;;;12.00;7.20;;;7.10;93.00;;;;;;5132857;27;20049;-30
2023/12/12 06:30:59;;;;;;;13.80;7.35;;;7.10;92.90;;;;;;5132711;27;20039;-31
2023/12/12 06:33:28;;;;;;;12.82;6.72;;;7.20;92.90;;;;;;5132898;27;20080;-28
2023/12/12 06:35:55;;;;;;;10.48;6.32;;;7.30;92.90;;;;;;5133020;27;20020;-29
2023/12/12 06:38:20;;;;;;;12.93;6.65;;;7.30;92.80;;;;;;5133197;27;20108;-30
2023/12/12 06:40:46;;;;;;;11.93;6.70;;;7.30;92.80;;;;;;5132687;27;20015;-28
2023/12/12 06:43:11;;;;;;;14.55;6.60;;;7.40;92.80;;;;;;5132837;27;20054;-28
2023/12/12 06:45:37;;;;;;;10.27;6.60;;;7.50;92.80;;;;;;5132598;27;20027;-29
2023/12/12 06:48:03;;;;;;;10.75;5.70;;;7.50;92.80;;;;;;5132877;27;20122;-29
2023/12/12 06:50:29;;;;;;;13.77;6.75;;;7.50;92.80;;;;;;5132480;27;20044;-31
2023/12/12 06:52:54;;;;;;;14.85;6.22;;;7.60;92.70;;;;;;5132362;27;20031;-33
2023/12/12 06:55:20;;;;;;;17.48;6.32;;;7.70;92.70;;;;;;5138673;27;20098;-28
2023/12/12 06:57:45;;;;;;;13.57;6.63;;;7.70;92.70;;;;;;5139634;27;20027;-29
2023/12/12 07:00:12;;;;;;;18.67;7.10;;;7.70;92.70;;;;;;5139408;27;20046;-29
2023/12/12 07:02:37;;;;;;;16.80;7.10;;;7.80;92.70;;;;;;5139225;27;20019;-29
2023/12/12 07:05:06;;;;;;;19.85;7.18;;;7.80;92.60;;;;;;5139302;27;20538;-28
2023/12/12 07:07:32;;;;;;;17.17;7.03;;;7.80;92.60;;;;;;5139344;27;20019;-29
2023/12/12 07:09:58;;;;;;;16.13;7.35;;;7.70;92.60;;;;;;5139191;27;20051;-28
2023/12/12 07:12:24;;;;;;;18.90;7.63;;;7.80;92.60;;;;;;5139319;27;20025;-31
2023/12/12 07:14:53;;;;;;;20.48;6.53;;;7.80;92.70;;;;;;5139197;27;20050;-28
2023/12/12 07:17:18;;;;;;;24.00;7.88;;;7.80;92.60;;;;;;5139247;27;20076;-31
2023/12/12 07:19:44;;;;;;;18.92;7.05;;;7.80;92.60;;;;;;5137481;27;20031;-32
2023/12/12 07:22:10;;;;;;;16.33;6.97;;;7.80;92.60;;;;;;5137948;27;20015;-31
2023/12/12 07:24:35;;;;;;;16.23;6.82;;;7.90;92.60;;;;;;5139266;27;20084;-30
2023/12/12 07:27:01;;;;;;;15.60;7.20;;;7.80;92.60;;;;;;5138855;27;20011;-32
2023/12/12 07:29:27;;;;;;;16.08;7.10;;;7.90;92.60;;;;;;5139227;27;20412;-29
2023/12/12 07:31:52;;;;;;;20.15;7.15;;;7.90;92.60;;;;;;5138981;27;20042;-36
2023/12/12 07:34:18;;;;;;;17.38;7.05;;;7.90;92.90;;;;;;5138813;27;20051;-29
2023/12/12 07:36:45;;;;;;;25.40;7.90;;;7.90;92.60;;;;;;5138960;27;20019;-31
2023/12/12 07:39:10;;;;;;;28.80;9.32;;;8.00;92.60;;;;;;5138910;27;20039;-31
2023/12/12 07:41:36;;;;;;;21.67;9.00;;;8.00;92.60;;;;;;5139094;27;20027;-32
2023/12/12 07:44:04;;;;;;;23.60;7.95;;;8.10;92.60;;;;;;5139035;27;20106;-30
2023/12/12 07:46:35;;;;;;;23.83;8.02;;;8.10;92.60;;;;;;5138901;27;20027;-34
2023/12/12 07:49:01;;;;;;;18.13;7.68;;;8.10;92.60;;;;;;5137979;27;20446;-36
2023/12/12 07:51:29;;;;;;;18.15;7.28;;;8.10;92.60;;;;;;5138625;27;20023;-40
2023/12/12 07:53:55;;;;;;;22.30;7.93;;;8.10;92.60;;;;;;5138833;27;20019;-30
2023/12/12 07:56:20;;;;;;;19.27;6.60;;;8.10;92.60;;;;;;5138985;27;20380;-29
2023/12/12 07:58:47;;;;;;;19.25;7.20;;;8.10;92.60;;;;;;5138674;27;20467;-38
2023/12/12 08:01:12;;;;;;;23.15;7.22;;;8.10;92.60;;;;;;5139059;27;20390;-32
2023/12/12 08:03:38;;;;;;;20.20;7.82;;;8.10;92.60;;;;;;5138750;27;20019;-29
2023/12/12 08:06:04;;;;;;;19.05;7.20;;;8.20;92.60;;;;;;5135418;27;20022;-29
2023/12/12 08:08:31;;;;;;;16.83;6.45;;;8.20;92.60;;;;;;5135632;27;20114;-31
2023/12/12 08:10:57;;;;;;;17.55;6.47;;;8.20;92.60;;;;;;5133930;27;20031;-29
2023/12/12 08:13:23;;;;;;;17.20;6.20;;;8.20;92.60;;;;;;5135432;27;20027;-29
2023/12/12 08:15:48;;;;;;;14.32;6.10;;;8.30;92.60;;;;;;5135175;27;20015;-29
2023/12/12 08:18:14;;;;;;;19.95;6.97;;;8.30;92.60;;;;;;5135067;27;20016;-28
2023/12/12 08:20:39;;;;;;;19.92;6.10;;;8.40;92.60;;;;;;5135050;27;20027;-30
2023/12/12 08:23:06;;;;;;;19.33;6.53;;;8.40;92.60;;;;;;5135287;27;20030;-31
2023/12/12 08:25:32;;;;;;;22.00;6.53;;;8.40;92.50;;;;;;5133540;27;20502;-36
2023/12/12 08:27:57;;;;;;;15.60;6.60;;;8.50;92.50;;;;;;5135091;27;20023;-32
2023/12/12 08:30:23;;;;;;;16.63;5.97;;;8.50;92.50;;;;;;5135009;27;20103;-28
2023/12/12 08:32:49;;;;;;;13.93;6.35;;;8.50;92.50;;;;;;5134932;27;20039;-29
2023/12/12 08:35:14;;;;;;;16.83;6.15;;;8.60;92.50;;;;;;5135200;27;20451;-31
2023/12/12 08:37:40;;;;;;;14.57;6.03;;;8.60;92.50;;;;;;5134876;27;20059;-34
2023/12/12 08:40:06;;;;;;;13.55;6.00;;;8.70;92.50;;;;;;5134764;27;20027;-29
2023/12/12 08:42:32;;;;;;;17.02;6.57;;;8.70;92.50;;;;;;5134882;27;20027;-29
2023/12/12 08:44:58;;;;;;;12.05;5.90;;;8.70;92.50;;;;;;5134499;27;20019;-35
2023/12/12 08:47:23;;;;;;;20.98;6.35;;;8.70;92.40;;;;;;5134457;27;20076;-28
2023/12/12 08:49:49;;;;;;;16.13;5.45;;;8.80;92.50;;;;;;5134804;27;20019;-29
2023/12/12 08:52:15;;;;;;;17.58;6.07;;;8.80;92.40;;;;;;5134381;27;20071;-36
2023/12/12 08:54:44;;;;;;;16.77;5.97;;;8.80;92.40;;;;;;5134429;27;20028;-27
2023/12/12 08:57:13;;;;;;;15.82;5.53;;;8.80;92.40;;;;;;5134786;27;20382;-30
2023/12/12 08:59:39;;;;;;;18.17;6.45;;;8.90;92.40;;;;;;5134765;27;20029;-31
2023/12/12 09:02:05;;;;;;;20.10;6.55;;;8.90;92.70;;;;;;5134290;27;20098;-31
2023/12/12 09:04:32;;;;;;;55.83;14.15;;;9.00;92.40;;;;;;5134412;27;20031;-29
2023/12/12 09:06:58;;;;;;;18.35;9.88;;;9.00;92.40;;;;;;5134664;27;20023;-32
2023/12/12 09:09:27;;;;;;;20.13;8.00;;;9.00;92.40;;;;;;5133927;27;20031;-30
2023/12/12 09:11:53;;;;;;;19.15;7.50;;;9.00;92.30;;;;;;5134519;27;20072;-29
2023/12/12 09:14:19;;;;;;;21.30;7.70;;;9.00;92.30;;;;;;5134533;27;20026;-28
2023/12/12 09:16:44;;;;;;;17.17;7.13;;;9.10;92.40;;;;;;5133745;27;20106;-35
2023/12/12 09:19:14;;;;;;;16.90;6.32;;;9.10;92.40;;;;;;5134249;27;20023;-28
2023/12/12 09:21:40;;;;;;;13.85;5.38;;;9.10;92.40;;;;;;5133978;27;20103;-32
2023/12/12 09:24:06;;;;;;;16.83;5.82;;;9.20;92.40;;;;;;5134202;27;20429;-33
2023/12/12 09:26:32;;;;;;;20.20;6.03;;;9.20;92.40;;;;;;5132421;27;20031;-32
2023/12/12 09:28:57;;;;;;;14.95;5.72;;;9.20;92.30;;;;;;5133867;27;20026;-31
2023/12/12 09:31:27;;;;;;;18.73;5.78;;;9.30;92.30;;;;;;5133915;27;20043;-32
2023/12/12 09:33:54;;;;;;;19.98;5.97;;;9.30;92.30;;;;;;5134146;27;20030;-36
2023/12/12 09:36:19;;;;;;;16.90;5.57;;;9.30;92.30;;;;;;5133948;27;20379;-32
2023/12/12 09:38:45;;;;;;;19.92;5.72;;;9.30;92.30;;;;;;5134288;27;20027;-30
2023/12/12 09:41:23;;;;;;;15.20;5.80;;;9.30;92.30;;;;;;5132486;27;20371;-34
2023/12/12 09:43:50;;;;;;;12.38;5.03;;;9.30;92.30;;;;;;5133788;27;20031;-32
2023/12/12 09:46:17;;;;;;;14.85;5.55;;;9.30;92.30;;;;;;5133895;27;20491;-29
2023/12/12 09:48:48;;;;;;;16.92;5.25;;;9.40;92.30;;;;;;5133344;27;20024;-29
2023/12/12 09:51:14;;;;;;;14.77;5.82;;;9.40;92.30;;;;;;5133430;27;20019;-28
2023/12/12 09:53:46;;;;;;;11.25;4.95;;;9.40;92.30;;;;;;5133725;27;20058;-30
2023/12/12 09:56:16;;;;;;;13.52;5.28;;;9.40;92.20;;;;;;5133374;27;20098;-30
2023/12/12 09:58:49;;;;;;;15.10;6.60;;;9.40;92.20;;;;;;5132077;27;20027;-30
2023/12/12 10:01:16;;;;;;;17.48;6.20;;;9.40;92.20;;;;;;5133557;27;20030;-30
2023/12/12 10:03:42;;;;;;;19.40;9.93;;;9.50;92.30;;;;;;5133220;27;20031;-29
2023/12/12 10:06:12;;;;;;;16.38;7.80;;;9.50;92.30;;;;;;5133449;27;20041;-33
2023/12/12 10:08:39;;;;;;;18.13;7.13;;;9.50;92.30;;;;;;5131810;27;20046;-32
2023/12/12 10:11:10;;;;;;;15.23;5.85;;;9.60;92.30;;;;;;5131884;27;20023;-28
2023/12/12 10:13:50;;;;;;;13.48;5.60;;;9.60;92.30;;;;;;5133419;27;20089;-29
2023/12/12 10:16:16;;;;;;;14.55;5.55;;;9.60;92.30;;;;;;5133386;27;20394;-29
2023/12/12 10:18:44;;;;;;;17.35;5.57;;;9.70;92.30;;;;;;5132813;27;20057;-29
2023/12/12 10:21:23;;;;;;;13.65;5.28;;;9.70;92.20;;;;;;5132875;27;20027;-29
2023/12/12 10:23:51;;;;;;;11.23;4.90;;;9.80;92.20;;;;;;5133045;27;20052;-29
2023/12/12 10:26:30;;;;;;;18.02;6.22;;;9.80;92.20;;;;;;5132968;27;20026;-31
2023/12/12 10:28:57;;;;;;;9.48;4.85;;;9.90;92.20;;;;;;5132322;27;20065;-28
2023/12/12 10:31:23;;;;;;;15.60;4.85;;;9.90;92.20;;;;;;5132834;27;20043;-29
2023/12/12 10:33:49;;;;;;;15.30;4.82;;;9.90;92.10;;;;;;5133013;27;20029;-28
2023/12/12 10:36:15;;;;;;;19.27;5.45;;;10.00;92.10;;;;;;5131597;27;20015;-31
2023/12/12 10:38:41;;;;;;;15.45;4.45;;;10.00;92.10;;;;;;5131731;27;20501;-30
2023/12/12 10:41:18;;;;;;;15.13;5.13;;;10.10;92.10;;;;;;5132830;27;20024;-32
2023/12/12 10:43:45;;;;;;;19.50;4.72;;;10.10;92.10;;;;;;5132639;27;20114;-35
2023/12/12 10:46:12;;;;;;;11.57;4.10;;;10.20;92.10;;;;;;5132586;27;20049;-29
2023/12/12 10:48:46;;;;;;;11.48;4.70;;;10.20;92.10;;;;;;5132360;27;20069;-29
2023/12/12 10:51:14;;;;;;;14.82;4.93;;;10.30;92.00;;;;;;5132564;27;20030;-33
2023/12/12 10:53:44;;;;;;;11.68;3.88;;;10.30;91.90;;;;;;5131022;28;20471;-29
2023/12/12 10:56:12;;;;;;;20.45;4.60;;;10.40;92.00;;;;;;5132626;27;20034;-29
2023/12/12 10:58:40;;;;;;;13.77;4.70;;;10.40;91.90;;;;;;5132496;27;20502;-32
2023/12/12 11:01:08;;;;;;;13.55;4.30;;;10.40;91.90;;;;;;5132775;27;20028;-29
2023/12/12 11:03:37;;;;;;;12.95;4.50;;;10.50;91.90;;;;;;5132301;27;20023;-31
2023/12/12 11:06:04;;;;;;;15.20;4.30;;;10.50;91.90;;;;;;5132668;27;20027;-31
2023/12/12 11:08:30;;;;;;;12.57;4.40;;;10.60;91.90;;;;;;5132473;27;20035;-29
2023/12/12 11:10:57;;;;;;;14.73;4.10;;;10.60;91.80;;;;;;5131125;28;20027;-28
2023/12/12 11:13:27;;;;;;;15.32;4.18;;;10.70;91.80;;;;;;5132552;27;20046;-28
2023/12/12 11:15:55;;;;;;;13.50;4.00;;;10.70;91.80;;;;;;5132187;27;20028;-30
2023/12/12 11:18:21;;;;;;;12.73;4.05;;;10.80;91.80;;;;;;5132658;27;20042;-31
2023/12/12 11:20:46;;;;;;;15.85;4.22;;;10.90;91.70;;;;;;5132553;27;20031;-28
2023/12/12 11:23:53;;;;;;;13.90;3.78;;;10.90;91.70;;;;;;5132639;27;20066;-35
2023/12/12 11:26:21;;;;;;;11.77;3.65;;;10.90;91.70;;;;;;5132745;27;20106;-39
2023/12/12 11:28:48;;;;;;;16.38;3.72;;;11.00;91.70;;;;;;5132755;27;20363;-32
2023/12/12 11:31:25;;;;;;;9.98;3.53;;;11.10;91.70;;;;;;5132454;27;20441;-31
2023/12/12 11:34:08;;;;;;;12.90;4.03;;;11.20;91.60;;;;;;5132637;27;20023;-31
2023/12/12 11:36:49;;;;;;;16.45;4.50;;;11.30;91.50;;;;;;5132832;27;20026;-31
2023/12/12 11:39:31;;;;;;;12.40;3.53;;;11.40;91.50;;;;;;5132461;27;20023;-31
2023/12/12 11:41:58;;;;;;;11.07;3.65;;;11.50;91.40;;;;;;5136550;27;20049;-30
2023/12/12 11:44:24;;;;;;;14.63;3.50;;;11.60;91.30;;;;;;5136345;27;20452;-33
2023/12/12 11:46:54;;;;;;;13.13;3.92;;;11.70;91.60;;;;;;5136574;27;20023;-34
2023/12/12 11:49:21;;;;;;;11.45;3.17;;;11.80;91.20;;;;;;5136222;27;20059;-35
2023/12/12 11:51:49;;;;;;;11.10;4.10;;;11.80;91.20;;;;;;5136233;27;20019;-31
2023/12/12 11:54:20;;;;;;;11.23;3.50;;;11.80;91.10;;;;;;5136290;27;20024;-32
2023/12/12 11:56:46;;;;;;;8.63;3.33;;;11.70;91.10;;;;;;5136059;27;20421;-33
2023/12/12 11:59:12;;;;;;;17.05;3.55;;;11.70;91.10;;;;;;5136231;27;20023;-36
2023/12/12 12:01:37;;;;;;;12.18;3.10;;;11.70;91.20;;;;;;5134853;27;20020;-35
2023/12/12 12:04:03;;;;;;;8.65;3.00;;;11.70;91.10;;;;;;5135756;27;20031;-32
2023/12/12 12:06:29;;;;;;;12.38;3.30;;;11.70;91.20;;;;;;5136022;27;20412;-31
2023/12/12 12:08:54;;;;;;;8.45;3.13;;;11.70;91.10;;;;;;5135670;27;20173;-32
2023/12/12 12:11:20;;;;;;;15.07;4.10;;;11.80;91.10;;;;;;5136110;27;20079;-31
2023/12/12 12:13:45;;;;;;;11.30;3.50;;;11.70;91.00;;;;;;5135613;27;20026;-33
2023/12/12 12:16:11;;;;;;;11.00;3.22;;;11.70;90.90;;;;;;5135676;27;20023;-34
2023/12/12 12:18:37;;;;;;;9.98;3.22;;;11.80;91.00;;;;;;5135534;27;20108;-32
2023/12/12 12:21:04;;;;;;;13.85;3.30;;;11.80;90.90;;;;;;5135783;27;20164;-35
2023/12/12 12:23:38;;;;;;;11.68;3.40;;;11.80;91.20;;;;;;5135453;27;20031;-32
2023/12/12 12:26:04;;;;;;;10.95;3.20;;;11.80;90.90;;;;;;5135673;27;20525;-34
2023/12/12 12:28:33;;;;;;;11.57;3.55;;;11.90;90.90;;;;;;5135324;27;20024;-33
2023/12/12 12:30:59;;;;;;;11.40;3.30;;;12.00;90.90;;;;;;5135372;27;20037;-30
2023/12/12 12:33:36;;;;;;;9.57;2.85;;;12.10;90.80;;;;;;5135444;27;20023;-30
2023/12/12 12:36:02;;;;;;;8.32;2.90;;;12.10;90.70;;;;;;5135031;27;20027;-30
2023/12/12 12:38:31;;;;;;;8.25;3.05;;;12.20;90.70;;;;;;5135144;27;20034;-30
2023/12/12 12:40:57;;;;;;;7.93;2.92;;;12.20;90.60;;;;;;5135219;27;20038;-30
2023/12/12 12:43:23;;;;;;;9.63;3.20;;;12.20;90.60;;;;;;5135114;27;20445;-29
2023/12/12 12:45:50;;;;;;;10.40;3.33;;;12.30;90.60;;;;;;5135079;27;20050;-28